19h13 EST


 

Suivi/Infos de l'aéroport


-ou-


 

Suivi des vols en temps réel9Y-TTC ✈ 08-05-2013 ✈ TTPP / POS - TTCP / TAB

Thumbnail
9Y-TTC / BWA1506
Unknown Owner · Trinidad & Tobago
Piarco Int'l ( – info)
Port-d'Espagne TT
Crown Point ( – info)
Scarborough, Tobago TT
Prévu: 08h10 AST
Prévu: 08h15 AST
Durée: 16 minutes
mercredi, 8 mai 2013
Statut Arrivé il y a plus d'un an. (journal de vol & graphique)
Avion Aerospatiale ATR-42-300 (bi-turbopropulseur) (AT43 – photos)
Vitesse Plan de vol: 532 kts (graphique)
Distance En ligne droite 83 km
Une partie au moins de ce vol se déroule hors de la zone de services primaire de FlightAware. Pour en savoir plus sur la couverture et la zone de services de FlightAware.
JOURNAL DE L'ACTIVITE
Vous voulez une recherche complète sur l'historique de 9Y-TTC depuis 1998? Achetez maintenant. Recevez-le dans l'heure.
Date Avion Provenance Destination Départ Arrivée Durée
19-12-2014 AT72Piarco Int'l ()Crown Point () 19h29 AST 19h45 AST 0:15
19-12-2014 AT72Crown Point ()Piarco Int'l () 18h22 AST 18h41 AST 0:19
19-12-2014 AT72Piarco Int'l ()Crown Point () 17h10 AST 17h33 AST 0:23
19-12-2014 AT72Crown Point ()Piarco Int'l () 16h03 AST 16h29 AST 0:26
19-12-2014 AT72Piarco Int'l ()Crown Point () 15h01 AST 15h18 AST 0:17
19-12-2014 AT72Crown Point ()Piarco Int'l () 13h51 AST 14h11 AST 0:20
19-12-2014 AT72Piarco Int'l ()Crown Point () 12h48 AST 13h03 AST 0:14
19-12-2014 AT72Crown Point ()Piarco Int'l () 11h44 AST 12h04 AST 0:20
19-12-2014 AT72Piarco Int'l ()Crown Point () 10h29 AST 10h44 AST 0:14
19-12-2014 AT72Crown Point ()Piarco Int'l () 09h19 AST 09h38 AST 0:19
19-12-2014 AT72Piarco Int'l ()Crown Point () 08h27 AST 08h41 AST 0:13
19-12-2014 AT72Crown Point ()Piarco Int'l () 07h27 AST 07h46 AST 0:19
19-12-2014 AT72Piarco Int'l ()Crown Point () 06h18 AST 06h33 AST 0:14
18-12-2014 AT72Crown Point ()Piarco Int'l () 20h43 AST 21h07 AST 0:24
18-12-2014 AT72Piarco Int'l ()Crown Point () 19h45 AST 20h03 AST 0:17
18-12-2014 AT72Crown Point ()Piarco Int'l () 18h07 AST 18h29 AST 0:22
18-12-2014 AT72Piarco Int'l ()Crown Point () 17h05 AST 17h29 AST 0:24
18-12-2014 AT72Crown Point ()Piarco Int'l () 16h01 AST 16h21 AST 0:20
18-12-2014 AT72Piarco Int'l ()Crown Point () 14h57 AST 15h13 AST 0:15
18-12-2014 AT72Crown Point ()Piarco Int'l () 13h27 AST 13h45 AST 0:18
18-12-2014 AT72Piarco Int'l ()Crown Point () 12h31 AST 12h48 AST 0:16
18-12-2014 AT72Piarco Int'l ()Crown Point () 08h30 AST 08h44 AST 0:13
18-12-2014 AT72Crown Point ()Piarco Int'l () 07h05 AST 07h22 AST 0:17
18-12-2014 AT72Piarco Int'l ()Crown Point () 06h13 AST 06h29 AST 0:15
17-12-2014 AT72Int'l Grantley-Adams ()Piarco Int'l () 21h17 AST 22h10 AST 0:52
17-12-2014 AT72Piarco Int'l ()Int'l Grantley-Adams () 19h31 AST 20h23 AST 0:51
17-12-2014 AT72Crown Point ()Piarco Int'l () 16h53 AST 17h12 AST 0:19
17-12-2014 AT72Piarco Int'l ()Crown Point () 16h02 AST 16h16 AST 0:13
17-12-2014 AT72Crown Point ()Piarco Int'l () 14h48 AST 15h08 AST 0:20
17-12-2014 AT72Piarco Int'l ()Crown Point () 13h54 AST 14h09 AST 0:14
16-12-2014 AT72Int'l Grantley-Adams ()Piarco Int'l () 21h03 AST 21h57 AST 0:53
16-12-2014 AT72Piarco Int'l ()Int'l Grantley-Adams () 19h23 AST 20h15 AST 0:52
16-12-2014 AT72Crown Point ()Piarco Int'l () 16h22 AST 16h44 AST 0:22
16-12-2014 AT72Piarco Int'l ()Crown Point () 15h29 AST 15h43 AST 0:13
16-12-2014 AT72Crown Point ()Piarco Int'l () 14h31 AST 14h51 AST 0:20
16-12-2014 AT72Piarco Int'l ()Crown Point () 13h33 AST 13h48 AST 0:14
16-12-2014 AT72Crown Point ()Piarco Int'l () 10h25 AST 10h47 AST 0:22
16-12-2014 AT72Piarco Int'l ()Crown Point () 09h28 AST 09h43 AST 0:14
16-12-2014 AT72Point Salines Int'l ()Piarco Int'l () 07h59 AST 08h33 AST 0:34
16-12-2014 AT72Piarco Int'l ()Point Salines Int'l () 06h41 AST 07h14 AST 0:32
16-12-2014 AT72Crown Point ()Piarco Int'l () 02h02 AST 02h15 AST 0:13
16-12-2014 AT72Piarco Int'l ()Crown Point () 01h00 AST 01h16 AST 0:15
15-12-2014 AT72Crown Point ()Piarco Int'l () 23h56 AST 00h14 AST (+1) 0:18
15-12-2014 AT72Piarco Int'l ()Crown Point () 22h59 AST 23h17 AST 0:17
15-12-2014 AT72Crown Point ()Piarco Int'l () 21h57 AST 22h15 AST 0:18
15-12-2014 AT72Piarco Int'l ()Crown Point () 20h55 AST 21h13 AST 0:18
15-12-2014 AT72Crown Point ()Piarco Int'l () 19h37 AST 19h49 AST 0:11
15-12-2014 AT72Piarco Int'l ()Crown Point () 18h36 AST 18h52 AST 0:15
15-12-2014 AT72Crown Point ()Piarco Int'l () 17h33 AST 17h45 AST 0:12
15-12-2014 AT72Piarco Int'l ()Crown Point () 16h30 AST 16h45 AST 0:14
15-12-2014 AT72Crown Point ()Piarco Int'l () 15h29 AST 15h41 AST 0:11
15-12-2014 AT72Piarco Int'l ()Crown Point () 14h36 AST 14h51 AST 0:14
15-12-2014 AT72Crown Point ()Piarco Int'l () 12h40 AST 12h59 AST 0:19
15-12-2014 AT72Piarco Int'l ()Crown Point () 11h38 AST 11h58 AST 0:20
15-12-2014 AT72Crown Point ()Piarco Int'l () 10h42 AST 10h55 AST 0:12
15-12-2014 AT72Piarco Int'l ()Crown Point () 09h34 AST 09h50 AST 0:15
15-12-2014 AT72Point Salines Int'l ()Piarco Int'l () 08h13 AST 08h36 AST 0:22
15-12-2014 AT72Piarco Int'l ()Point Salines Int'l () 06h42 AST 07h10 AST 0:27
14-12-2014 AT72Crown Point ()Piarco Int'l () 20h39 AST 20h54 AST 0:14
14-12-2014 AT72Piarco Int'l ()Crown Point () 19h44 AST 20h00 AST 0:15
14-12-2014 AT72Crown Point ()Piarco Int'l () 18h42 AST 19h02 AST 0:20
14-12-2014 AT72Piarco Int'l ()Crown Point () 17h50 AST 18h08 AST 0:18
14-12-2014 AT72George F. L. Charles ()Piarco Int'l () 15h42 AST 16h37 AST 0:55
14-12-2014 AT72Piarco Int'l ()George F. L. Charles () 14h02 AST 14h58 AST 0:55
14-12-2014 AT72Crown Point ()Piarco Int'l () 12h48 AST 13h03 AST 0:14
14-12-2014 AT72Piarco Int'l ()Crown Point () 11h49 AST 12h03 AST 0:13
14-12-2014 AT72Crown Point ()Piarco Int'l () 10h56 AST 11h09 AST 0:12
14-12-2014 AT72Piarco Int'l ()Crown Point () 09h58 AST 10h12 AST 0:13
14-12-2014 AT72Crown Point ()Piarco Int'l () 08h40 AST 09h03 AST 0:23
14-12-2014 AT72Piarco Int'l ()Crown Point () 07h44 AST 08h00 AST 0:15
14-12-2014 AT72Crown Point ()Piarco Int'l () 06h43 AST 07h02 AST 0:19
14-12-2014 AT72Piarco Int'l ()Crown Point () 05h58 AST 06h12 AST 0:13
13-12-2014 AT72Crown Point ()Piarco Int'l () 19h32 AST 19h50 AST 0:18
13-12-2014 AT72Piarco Int'l ()Crown Point () 18h37 AST 18h53 AST 0:15
13-12-2014 AT72Crown Point ()Piarco Int'l () 17h24 AST 17h42 AST 0:18
13-12-2014 AT72Piarco Int'l ()Crown Point () 16h32 AST 16h54 AST 0:22
13-12-2014 AT72Crown Point ()Piarco Int'l () 15h28 AST 15h46 AST 0:18
13-12-2014 AT72Piarco Int'l ()Crown Point () 14h42 AST 14h57 AST 0:14
13-12-2014 AT72Crown Point ()Piarco Int'l () 13h16 AST 13h34 AST 0:18
13-12-2014 AT72Piarco Int'l ()Crown Point () 12h17 AST 12h33 AST 0:15
13-12-2014 AT72Crown Point ()Piarco Int'l () 11h13 AST 11h31 AST 0:18
13-12-2014 AT72Piarco Int'l ()Crown Point () 10h19 AST 10h35 AST 0:15
13-12-2014 AT72Crown Point ()Piarco Int'l () 09h20 AST 09h30 AST 0:09
13-12-2014 AT72Piarco Int'l ()Crown Point () 08h24 AST 08h38 AST 0:13
13-12-2014 AT72Crown Point ()Piarco Int'l () 07h04 AST 07h21 AST 0:17
13-12-2014 AT72Piarco Int'l ()Crown Point () 06h16 AST 06h34 AST 0:17
13-12-2014 AT72Crown Point ()Piarco Int'l () 02h53 AST 03h11 AST 0:18
13-12-2014 AT72Piarco Int'l ()Crown Point () 02h09 AST 02h24 AST 0:14
13-12-2014 AT72Piarco Int'l ()Crown Point () 00h17 AST 00h31 AST 0:13
12-12-2014 AT72Crown Point ()Piarco Int'l () 21h24 AST 21h44 AST 0:20
12-12-2014 AT72Piarco Int'l ()Crown Point () 20h32 AST 20h48 AST 0:15
12-12-2014 AT72Crown Point ()Piarco Int'l () 19h35 AST 19h54 AST 0:19
12-12-2014 AT72Piarco Int'l ()Crown Point () 18h45 AST 19h01 AST 0:15
12-12-2014 AT72George F. L. Charles ()Piarco Int'l () 16h45 AST 17h43 AST 0:58
12-12-2014 AT72Piarco Int'l ()George F. L. Charles () 15h05 AST 16h12 AST 1:07
12-12-2014 AT72Crown Point ()Piarco Int'l () 13h07 AST 13h24 AST 0:17
12-12-2014 AT72Piarco Int'l ()Crown Point () 11h57 AST 12h15 AST 0:17
12-12-2014 AT72Crown Point ()Piarco Int'l () 10h27 AST 10h47 AST 0:20
12-12-2014 AT72Piarco Int'l ()Crown Point () 09h32 AST 09h49 AST (?) 0:16
Les membres inscrits (l'inscription est gratuite et facile!) voient 4 months d'historique. S'inscrire